Maplewood, Ohio
Current Conditions -  °F | °C
As of 5:30 PM on Sunday 25 Jan 2015 (Local Time) from KEDJ Reporting Station
Broken Clouds Broken Clouds  
Wind Chill: 11°   Ceiling: 1600
Heat Index: 25°   Visibility: 1.7mi
Dew Point: 25°   Wind: 17mph
Humidity: 100%   Direction: 40°NE
Pressure: 29.73"   Gusts: 22mph
Location:  40.38°N, 84.03°W
Report Text: KEDJ 252230Z AUTO 04015G19KT 1 3/4SM SCT010 BKN016 M04/M04 A2973 RMK AO1
Loading
Personal Weather Stations






























Interactive Weather Map New forecast layout! Learn more

10-Day Weather Forecast

Advertisements
Track Severe Weather on mobile